Latest Coastal Weather Observations for Warruwi

IDD60701

Issued at 6:55 am CST Thursday 27 November 2014 (issued every 10 minutes, with the page automatically refreshed every 10 minutes)

About coastal observations | Map of coastal stations | Coastal observations for NT | Marine services | Other Formats
Station Details ID: 014401 Name: WARRUWI AIRPORT Lat: -11.65 Lon: 133.38 Height: 19.2 m
Data from the previous 72 hours. | See also: Recent months at Warruwi
Date/Time
CST
Temp

°C
Wind Pressure Rain
since 9am
mm
Weather Cloud Vis
km
Sea
Height
m
Swell
Dir
 
Speed
knots
Gust
knots
hPa Trend Height
m
Period
s
Dir
27/06:30am 28.4 ENE 4 8 1008.6 - 1.8 - - - - - - -
27/06:00am 28.3 ENE 4 7 1008.2 - 1.8 - - - - - - -
27/05:30am 28.4 NE 4 8 1008.0 - 1.8 - - - - - - -
27/05:00am 28.3 ENE 4 8 1007.6 - 1.8 - - - - - - -
27/04:30am 28.3 ENE 3 5 1007.4 - 1.8 - - - - - - -
27/04:00am 28.4 ENE 4 7 1007.3 - 1.8 - - - - - - -
27/03:30am 28.3 ENE 3 6 1007.4 - 1.8 - - - - - - -
27/03:00am 28.4 ENE 3 5 1007.4 - 1.8 - - - - - - -
27/02:30am 28.6 ENE 4 7 1007.5 - 1.8 - - - - - - -
27/02:00am 28.4 NE 3 7 1007.8 - 1.8 - - - - - - -
27/01:30am 28.6 ENE 4 7 1007.8 - 1.8 - - - - - - -
27/01:00am 28.5 ENE 3 6 1008.1 - 1.8 - - - - - - -
27/12:30am 28.4 ENE 3 6 1008.3 - 1.8 - - - - - - -
27/12:00am 28.4 ENE 3 5 1008.6 - 1.8 - - - - - - -
 
Date/Time
CST
Temp

°C
Wind Pressure Rain
since 9am
mm
Weather Cloud Vis
km
Sea
Height
m
Swell
Dir
 
Speed
knots
Gust
knots
hPa Trend Height
m
Period
s
Dir
26/11:30pm 28.4 NNE 2 4 1008.7 - 1.8 - - - - - - -
26/11:00pm 28.6 ENE 3 6 1008.8 - 1.8 - - - - - - -
26/10:30pm 28.7 ENE 4 8 1008.7 - 1.8 - - - - - - -
26/10:00pm 28.5 NE 3 7 1008.6 - 1.8 - - - - - - -
26/09:30pm 28.7 NE 5 8 1008.4 - 1.8 - - - - - - -
26/09:00pm 28.9 ENE 5 9 1008.3 - 1.8 - - - - - - -
26/08:30pm 28.9 ENE 5 8 1007.9 - 1.8 - - - - - - -
26/08:00pm 29.0 ENE 6 9 1007.7 - 1.8 - - - - - - -
26/07:30pm 29.1 ENE 5 8 1007.2 - 1.8 - - - - - - -
26/07:00pm 29.2 ENE 5 10 1006.6 - 1.8 - - - - - - -
26/06:30pm 29.4 NE 5 10 1006.4 - 1.8 - - - - - - -
26/06:00pm 30.2 ENE 5 11 1006.5 - 1.8 - - - - - - -
26/05:30pm 30.6 ENE 8 13 1006.3 - 1.8 - - - - - - -
26/05:00pm 30.9 E 9 16 1006.1 - 1.8 - - - - - - -
26/04:30pm 31.1 E 9 14 1006.1 - 1.8 - - - - - - -
26/04:00pm 31.3 E 10 14 1006.1 - 1.8 - - - - - - -
26/03:30pm 30.7 ENE 8 13 1006.4 - 1.8 - - - - - - -
26/03:00pm 31.5 ENE 9 15 1006.4 - 1.8 - - - - - - -
26/02:30pm 31.8 E 10 16 1006.5 - 1.8 - - - - - - -
26/02:00pm 31.2 E 10 16 1006.7 - 1.8 - - - - - - -
26/01:30pm 31.1 E 9 17 1007.2 - 1.8 - - - - - - -
26/01:00pm 30.4 ENE 9 15 1007.7 - 1.8 - - - - - - -
26/12:30pm 31.1 ENE 7 13 1008.2 - 1.6 - - - - - - -
26/12:00pm 29.7 ENE 9 15 1008.7 - 1.6 Recent precip. - - - - - -
26/11:30am 26.4 ENE 5 7 1009.1 - 1.6 - - - - - - -
26/11:04am 29.3 E 15 26 1009.5 - 0.0 - - - - - - -
26/11:00am 29.6 E 11 20 1009.5 - 0.0 - - - - - - -
26/10:30am 31.4 E 7 10 1009.6 - 0.0 - - - - - - -
26/10:00am 30.7 ENE 5 7 1009.6 - 0.0 - - - - - - -
26/09:30am 29.9 NNE 4 8 1009.5 - 0.0 - - - - - - -
26/09:00am 30.2 SSE 4 8 1009.3 - 0.0 - - - - - - -
26/08:30am 30.3 S 4 6 1009.2 - 0.0 - - - - - - -
26/08:00am 29.7 S 4 6 1008.8 - 0.0 - - - - - - -
26/07:30am 29.1 S 3 4 1008.4 - 0.0 - - - - - - -
26/07:00am 28.6 SSW 3 5 1008.1 - 0.0 - - - - - - -
26/06:30am 27.9 SW 2 3 1007.8 - 0.0 - - - - - - -
26/06:00am 27.7 CALM 0 2 1007.4 - 0.0 - - - - - - -
26/05:30am 27.7 S 2 3 1007.2 - 0.0 - - - - - - -
26/05:00am 27.9 S 2 4 1007.0 - 0.0 - - - - - - -
26/04:30am 28.3 SW 2 4 1006.9 - 0.0 - - - - - - -
26/04:00am 28.2 CALM 0 0 1006.7 - 0.0 - - - - - - -
26/03:30am 28.1 WSW 2 3 1006.7 - 0.0 - - - - - - -
26/03:00am 28.1 CALM 0 1 1006.6 - 0.0 - - - - - - -
26/02:30am 28.2 S 2 3 1006.9 - 0.0 - - - - - - -
26/02:00am 28.3 S 2 4 1007.1 - 0.0 - - - - - - -
26/01:30am 28.6 SE 2 4 1007.4 - 0.0 - - - - - - -
26/01:00am 28.2 CALM 0 2 1007.6 - 0.0 - - - - - - -
26/12:30am 28.2 NNE 1 2 1007.9 - 0.0 - - - - - - -
26/12:00am 28.2 CALM 0 0 1008.4 - 0.0 - - - - - - -
 
Date/Time
CST
Temp

°C
Wind Pressure Rain
since 9am
mm
Weather Cloud Vis
km
Sea
Height
m
Swell
Dir
 
Speed
knots
Gust
knots
hPa Trend Height
m
Period
s
Dir
25/11:30pm 28.0 CALM 0 0 1008.5 - 0.0 - - - - - - -
25/11:00pm 28.3 CALM 0 0 1008.7 - 0.0 - - - - - - -
25/10:30pm 28.3 CALM 0 2 1008.6 - 0.0 - - - - - - -
25/10:00pm 28.3 N 1 2 1008.4 - 0.0 - - - - - - -
25/09:30pm 28.6 NNE 1 2 1008.3 - 0.0 - - - - - - -
25/09:00pm 28.8 NE 2 4 1008.5 - 0.0 - - - - - - -
25/08:30pm 28.9 NNE 2 4 1008.3 - 0.0 - - - - - - -
25/08:00pm 28.9 N 4 6 1007.8 - 0.0 - - - - - - -
25/07:30pm 29.1 N 3 6 1007.2 - 0.0 - - - - - - -
25/07:00pm 29.2 NNE 4 6 1007.3 - 0.0 - - - - - - -
25/06:30pm 29.5 NNE 4 6 1007.3 - 0.0 - - - - - - -
25/06:00pm 29.9 NNE 4 7 1007.4 - 0.0 - - - - - - -
25/05:30pm 30.7 NNE 4 7 1007.3 - 0.0 - - - - - - -
25/05:00pm 31.0 NNE 4 8 1007.0 - 0.0 - - - - - - -
25/04:30pm 32.1 NNE 7 11 1006.3 - 0.0 - - - - - - -
25/04:00pm 32.3 NNE 6 11 1006.4 - 0.0 - - - - - - -
25/03:30pm 32.2 NE 7 12 1005.9 - 0.0 - - - - - - -
25/03:00pm 32.0 NE 8 13 1006.1 - 0.0 - - - - - - -
25/02:30pm 33.7 ENE 8 13 1006.4 - 0.0 - - - - - - -
25/02:00pm 33.9 ENE 8 11 1007.2 - 0.0 - - - - - - -
25/01:30pm 33.1 E 8 11 1007.8 - 0.0 - - - - - - -
25/01:00pm 32.5 E 8 11 1008.5 - 0.0 - - - - - - -
25/12:30pm 32.4 E 8 11 1009.1 - 0.0 - - - - - - -
25/12:00pm 32.8 E 9 11 1009.2 - 0.0 - - - - - - -
25/11:30am 31.8 E 9 12 1009.4 - 0.0 - - - - - - -
25/11:00am 32.3 E 8 13 1009.5 - 0.0 - - - - - - -
25/10:30am 31.9 E 6 10 1009.8 - 0.0 - - - - - - -
25/10:00am 31.3 E 9 11 1009.7 - 0.0 - - - - - - -
25/09:30am 31.1 E 7 10 1009.7 - 0.0 - - - - - - -
25/09:00am 30.9 E 6 9 1009.7 - 0.0 - - - - - - -
25/08:30am 30.5 E 6 9 1009.6 - 0.0 - - - - - - -
25/08:00am 29.1 ENE 4 5 1009.6 - 0.0 - - - - - - -
25/07:30am 29.1 E 3 4 1009.6 - 0.0 - - - - - - -
25/07:00am 28.4 ENE 1 2 1009.4 - 0.0 - - - - - - -
25/06:30am 27.2 CALM 0 0 1009.0 - 0.0 - - - - - - -
25/06:00am 26.8 N 1 2 1008.5 - 0.0 - - - - - - -
25/05:30am 27.0 - - - 1008.2 - - - - - - - - -
25/05:00am 27.2 - - - 1008.3 - - - - - - - - -
25/04:30am 27.2 CALM 0 0 1008.2 - 0.0 - - - - - - -
25/04:00am 27.4 CALM 0 0 1008.0 - 0.0 - - - - - - -
25/03:30am 27.4 NNE 1 1 1007.6 - 0.0 - - - - - - -
25/03:00am 27.2 CALM 0 1 1007.7 - 0.0 - - - - - - -
25/02:30am 27.4 CALM 0 0 1008.0 - 0.0 - - - - - - -
25/02:00am 27.6 CALM 0 0 1008.4 - 0.0 - - - - - - -
25/01:30am 27.6 CALM 0 0 1008.8 - 0.0 - - - - - - -
25/01:00am 27.9 CALM 0 0 1009.1 - 0.0 - - - - - - -
25/12:30am 28.2 CALM 0 0 1009.7 - 0.0 - - - - - - -
25/12:00am 28.4 CALM 0 0 1010.2 - 0.0 - - - - - - -
 
Date/Time
CST
Temp

°C
Wind Pressure Rain
since 9am
mm
Weather Cloud Vis
km
Sea
Height
m
Swell
Dir
 
Speed
knots
Gust
knots
hPa Trend Height
m
Period
s
Dir
24/11:30pm 28.2 CALM 0 0 1010.3 - 0.0 - - - - - - -
24/11:00pm 28.3 CALM 0 1 1010.2 - 0.0 - - - - - - -
24/10:30pm 28.3 N 2 3 1010.0 - 0.0 - - - - - - -
24/10:00pm 28.4 CALM 0 1 1010.2 - 0.0 - - - - - - -
24/09:30pm 28.6 CALM 0 0 1010.0 - 0.0 - - - - - - -
24/09:00pm 28.6 NNE 1 3 1009.6 - 0.0 - - - - - - -
24/08:30pm 28.7 N 3 6 1009.0 - 0.0 - - - - - - -
24/08:00pm 28.8 N 3 5 1008.7 - 0.0 - - - - - - -
24/07:30pm 28.9 N 3 5 1008.3 - 0.0 - - - - - - -
24/07:00pm 29.1 N 5 9 1007.8 - 0.0 - - - - - - -
24/06:30pm 29.4 NNE 5 8 1007.7 - 0.0 - - - - - - -
24/06:00pm 30.2 NNE 5 10 1007.1 - 0.0 - - - - - - -
24/05:30pm 30.3 N 6 14 1006.8 - 0.0 - - - - - - -
24/05:00pm 30.7 NE 8 13 1006.4 - 0.0 - - - - - - -
24/04:30pm 31.1 NE 8 13 1006.5 - 0.0 - - - - - - -
24/04:00pm 31.5 NNE 10 16 1006.6 - 0.0 - - - - - - -
24/03:30pm 32.1 NNE 7 14 1007.2 - 0.0 - - - - - - -
24/03:00pm 32.5 NE 8 13 1007.6 - 0.0 - - - - - - -
24/02:30pm 32.5 ENE 7 12 1008.1 - 0.0 - - - - - - -
24/02:00pm 33.0 ENE 6 10 1008.5 - 0.0 - - - - - - -
24/01:30pm 32.7 ENE 7 10 1009.1 - 0.0 - - - - - - -
24/01:00pm 32.2 E 7 11 1009.7 - 0.0 - - - - - - -
24/12:30pm 32.2 E 7 12 1010.4 - 0.0 - - - - - - -
24/12:00pm 32.9 E 8 11 1010.7 - 0.0 - - - - - - -
24/11:30am 32.3 E 7 11 1011.1 - 0.0 - - - - - - -
24/11:00am 32.3 ESE 7 10 1011.4 - 0.0 - - - - - - -
24/10:30am 31.5 E 7 10 1011.5 - 0.0 - - - - - - -
24/10:00am 31.3 E 7 11 1011.4 - 0.0 - - - - - - -
24/09:30am 31.4 E 6 8 1011.2 - 0.0 - - - - - - -
24/09:00am 30.4 NE 3 6 1010.9 - 0.0 - - - - - - -
24/08:30am 30.4 E 4 7 1010.7 - 0.0 - - - - - - -
24/08:00am 30.2 E 4 6 1010.8 - 0.0 - - - - - - -
24/07:30am 29.4 NNE 2 5 1010.5 - 0.0 - - - - - - -
24/07:00am 28.8 CALM 0 1 1010.3 - 0.0 - - - - - - -

Other Formats:

Comma delimited format used in spreadsheet applications
http://www.bom.gov.au/fwo/IDD60701/IDD60701.94139.axf

JavaScript Object Notation format (JSON) in row-major order
http://www.bom.gov.au/fwo/IDD60701/IDD60701.94139.json